createdAt,value
2016-06-13T00:00:26.856Z,0
2016-06-13T00:01:26.860Z,0
2016-06-13T00:02:26.863Z,0
2016-06-13T00:03:26.880Z,0
2016-06-13T00:04:26.868Z,0
2016-06-13T00:05:26.872Z,0
2016-06-13T00:06:27.640Z,0
2016-06-13T00:07:26.878Z,0
2016-06-13T00:08:28.645Z,0
2016-06-13T00:09:26.899Z,0
2016-06-13T00:10:26.887Z,0
2016-06-13T00:11:26.921Z,0
2016-06-13T00:12:26.908Z,0
2016-06-13T00:13:26.912Z,0
2016-06-13T00:14:26.899Z,0
2016-06-13T00:15:26.917Z,0
2016-06-13T00:16:26.952Z,0
2016-06-13T00:17:27.487Z,0
2016-06-13T00:18:27.599Z,0
2016-06-13T00:19:28.054Z,0
2016-06-13T00:20:26.793Z,0
2016-06-13T00:21:26.811Z,0
2016-06-13T00:22:26.955Z,0
2016-06-13T00:23:26.942Z,0
2016-06-13T00:24:26.962Z,0
2016-06-13T00:25:26.964Z,0
2016-06-13T00:26:28.467Z,0
2016-06-13T00:27:26.986Z,0
2016-06-13T00:28:28.301Z,0
2016-06-13T00:29:26.977Z,0
2016-06-13T00:30:28.104Z,0
2016-06-13T00:31:26.982Z,0
2016-06-13T00:32:26.986Z,0
2016-06-13T00:33:26.989Z,0
2016-06-13T00:34:26.992Z,0
2016-06-13T00:35:27.011Z,0
2016-06-13T00:36:26.998Z,0
2016-06-13T00:37:27.001Z,0
2016-06-13T00:38:27.020Z,0
2016-06-13T00:39:28.601Z,0
2016-06-13T00:40:27.042Z,0
2016-06-13T00:41:28.919Z,0
2016-06-13T00:42:27.047Z,0
2016-06-13T00:43:27.036Z,0
2016-06-13T00:44:27.039Z,0
2016-06-13T00:45:26.884Z,0
2016-06-13T00:46:27.060Z,0
2016-06-13T00:47:27.062Z,0
2016-06-13T00:48:27.051Z,0
2016-06-13T00:49:27.054Z,0
2016-06-13T00:50:28.775Z,0
2016-06-13T00:51:27.075Z,0
2016-06-13T00:52:27.125Z,0
2016-06-13T00:53:27.081Z,0
2016-06-13T00:54:27.085Z,0
2016-06-13T00:55:27.134Z,0
2016-06-13T00:56:28.732Z,0
2016-06-13T00:57:27.157Z,0
2016-06-13T00:58:27.097Z,0
2016-06-13T00:59:27.100Z,0
2016-06-13T01:00:26.947Z,0
2016-06-13T01:01:27.872Z,0
2016-06-13T01:02:27.109Z,0
2016-06-13T01:03:27.519Z,0
2016-06-13T01:04:27.318Z,0
2016-06-13T01:05:27.119Z,0
2016-06-13T01:06:27.137Z,0
2016-06-13T01:07:27.140Z,0
2016-06-13T01:08:27.175Z,0
2016-06-13T01:09:27.162Z,0
2016-06-13T01:10:27.149Z,0
2016-06-13T01:11:29.027Z,0
2016-06-13T01:12:28.031Z,0
2016-06-13T01:13:26.925Z,0
2016-06-13T01:14:27.692Z,0
2016-06-13T01:15:27.009Z,0
2016-06-13T01:16:27.105Z,0
2016-06-13T01:17:27.108Z,0
2016-06-13T01:18:27.111Z,0
2016-06-13T01:19:27.193Z,0
2016-06-13T01:20:27.196Z,0
2016-06-13T01:21:27.199Z,0
2016-06-13T01:22:27.203Z,0
2016-06-13T01:23:28.252Z,0
2016-06-13T01:24:27.223Z,0
2016-06-13T01:25:27.851Z,0
2016-06-13T01:26:27.667Z,0
2016-06-13T01:27:27.233Z,0
2016-06-13T01:28:27.236Z,0
2016-06-13T01:29:27.239Z,0
2016-06-13T01:30:27.227Z,0
2016-06-13T01:31:27.245Z,0
2016-06-13T01:32:27.592Z,0
2016-06-13T01:33:27.251Z,0
2016-06-13T01:34:27.833Z,0
2016-06-13T01:35:27.257Z,0
2016-06-13T01:36:28.291Z,0
2016-06-13T01:37:27.264Z,0
2016-06-13T01:38:27.283Z,0
2016-06-13T01:39:27.270Z,0
2016-06-13T01:40:27.272Z,0
2016-06-13T01:41:26.995Z,0
2016-06-13T01:42:27.295Z,0
2016-06-13T01:43:28.048Z,0
2016-06-13T01:44:27.301Z,0
2016-06-13T01:45:28.570Z,0
2016-06-13T01:46:27.291Z,0
2016-06-13T01:47:28.200Z,0
2016-06-13T01:48:27.344Z,0
2016-06-13T01:49:27.331Z,0
2016-06-13T01:50:27.179Z,0
2016-06-13T01:51:27.322Z,0
2016-06-13T01:52:27.340Z,0
2016-06-13T01:53:27.343Z,0
2016-06-13T01:54:27.769Z,0
2016-06-13T01:55:27.349Z,0
2016-06-13T01:56:27.603Z,0
2016-06-13T01:57:27.481Z,0
2016-06-13T01:58:28.625Z,0
2016-06-13T01:59:27.362Z,0
2016-06-13T02:00:27.412Z,0
2016-06-13T02:01:27.385Z,0
2016-06-13T02:02:27.371Z,0
2016-06-13T02:03:27.234Z,0
2016-06-13T02:04:27.378Z,0
2016-06-13T02:05:27.990Z,0
2016-06-13T02:06:27.400Z,0
2016-06-13T02:07:27.747Z,0
2016-06-13T02:08:27.405Z,0
2016-06-13T02:09:27.925Z,0
2016-06-13T02:10:27.428Z,0
2016-06-13T02:11:27.290Z,0
2016-06-13T02:12:27.434Z,0
2016-06-13T02:13:27.421Z,0
2016-06-13T02:14:27.424Z,0
2016-06-13T02:15:27.428Z,0
2016-06-13T02:16:28.383Z,0
2016-06-13T02:17:27.449Z,0
2016-06-13T02:18:28.139Z,0
2016-06-13T02:19:27.440Z,0
2016-06-13T02:20:28.302Z,0
2016-06-13T02:21:27.462Z,0
2016-06-13T02:22:27.465Z,0
2016-06-13T02:23:27.311Z,0
2016-06-13T02:24:27.471Z,0
2016-06-13T02:25:27.489Z,0
2016-06-13T02:26:27.711Z,0
2016-06-13T02:27:27.495Z,0
2016-06-13T02:28:27.483Z,0
2016-06-13T02:29:28.487Z,0
2016-06-13T02:30:27.489Z,0
2016-06-13T02:31:28.461Z,0
2016-06-13T02:32:27.511Z,0
2016-06-13T02:33:27.514Z,0
2016-06-13T02:34:27.501Z,0
2016-06-13T02:35:27.520Z,0
2016-06-13T02:36:27.523Z,0
2016-06-13T02:37:27.542Z,0
2016-06-13T02:38:27.529Z,0
2016-06-13T02:39:27.376Z,0
2016-06-13T02:40:28.348Z,0
2016-06-13T02:41:27.726Z,0
2016-06-13T02:42:28.041Z,0
2016-06-13T02:43:27.545Z,0
2016-06-13T02:44:27.548Z,0
2016-06-13T02:45:27.550Z,0
2016-06-13T02:46:27.570Z,0
2016-06-13T02:47:27.573Z,0
2016-06-13T02:48:27.576Z,0
2016-06-13T02:49:27.531Z,0
2016-06-13T02:50:27.581Z,0
2016-06-13T02:51:28.710Z,0
2016-06-13T02:52:27.588Z,0
2016-06-13T02:53:28.388Z,0
2016-06-13T02:54:27.594Z,0
2016-06-13T02:55:27.614Z,0
2016-06-13T02:56:27.647Z,0
2016-06-13T02:57:27.603Z,0
2016-06-13T02:58:27.716Z,0
2016-06-13T02:59:27.657Z,0
2016-06-13T03:00:28.425Z,0
2016-06-13T03:01:27.615Z,0
2016-06-13T03:02:28.588Z,0
2016-06-13T03:03:27.638Z,0
2016-06-13T03:04:28.359Z,0
2016-06-13T03:05:27.644Z,0
2016-06-13T03:06:27.647Z,0
2016-06-13T03:07:27.650Z,0
2016-06-13T03:08:27.654Z,0
2016-06-13T03:09:27.671Z,0
2016-06-13T03:10:27.659Z,0
2016-06-13T03:11:28.975Z,0
2016-06-13T03:12:27.525Z,0
2016-06-13T03:13:28.902Z,0
2016-06-13T03:14:27.672Z,0
2016-06-13T03:15:28.753Z,0
2016-06-13T03:16:27.692Z,0
2016-06-13T03:17:27.681Z,0
2016-06-13T03:18:27.699Z,0
2016-06-13T03:19:27.702Z,0
2016-06-13T03:20:27.705Z,0
2016-06-13T03:21:27.709Z,0
2016-06-13T03:22:28.352Z,0
2016-06-13T03:23:27.714Z,0
2016-06-13T03:24:29.420Z,0
2016-06-13T03:25:27.737Z,0
2016-06-13T03:26:29.239Z,0
2016-06-13T03:27:27.779Z,0
2016-06-13T03:28:27.808Z,0
2016-06-13T03:29:27.851Z,0
2016-06-13T03:30:27.895Z,0
2016-06-13T03:31:27.938Z,0
2016-06-13T03:32:27.999Z,0
2016-06-13T03:33:28.703Z,0
2016-06-13T03:34:28.002Z,0
2016-06-13T03:35:28.613Z,0
2016-06-13T03:36:28.037Z,0
2016-06-13T03:37:28.064Z,0
2016-06-13T03:38:28.072Z,0
2016-06-13T03:39:27.925Z,0
2016-06-13T03:40:27.933Z,0
2016-06-13T03:41:27.958Z,0
2016-06-13T03:42:28.589Z,0
2016-06-13T03:43:28.109Z,0
2016-06-13T03:44:28.239Z,0
2016-06-13T03:45:28.119Z,0
2016-06-13T03:46:29.296Z,0
2016-06-13T03:47:28.129Z,0
2016-06-13T03:48:28.243Z,0
2016-06-13T03:49:28.152Z,0
2016-06-13T03:50:28.156Z,0
2016-06-13T03:51:28.144Z,0
2016-06-13T03:52:28.164Z,0
2016-06-13T03:53:28.166Z,0
2016-06-13T03:54:28.154Z,0
2016-06-13T03:55:28.485Z,0
2016-06-13T03:56:28.629Z,0
2016-06-13T03:57:29.445Z,0
2016-06-13T03:58:28.182Z,0
2016-06-13T03:59:28.435Z,0
2016-06-13T04:00:28.297Z,0
2016-06-13T04:01:28.238Z,0
2016-06-13T04:02:28.194Z,0
2016-06-13T04:03:28.214Z,0
2016-06-13T04:04:28.216Z,0
2016-06-13T04:05:28.063Z,0
2016-06-13T04:06:28.909Z,0
2016-06-13T04:07:28.226Z,0
2016-06-13T04:08:29.291Z,0
2016-06-13T04:09:28.231Z,0
2016-06-13T04:10:28.985Z,0
2016-06-13T04:11:29.003Z,0
2016-06-13T04:12:28.866Z,0
2016-06-13T04:13:28.400Z,0
2016-06-13T04:14:28.262Z,0
2016-06-13T04:15:28.265Z,0
2016-06-13T04:16:28.254Z,0
2016-06-13T04:17:29.256Z,5
2016-06-13T04:18:28.290Z,5
2016-06-13T04:19:28.310Z,5
2016-06-13T04:20:28.125Z,0
2016-06-13T04:21:29.143Z,0
2016-06-13T04:22:28.286Z,0
2016-06-13T04:23:28.305Z,0
2016-06-13T04:24:28.153Z,0
2016-06-13T04:25:28.296Z,0
2016-06-13T04:26:28.158Z,0
2016-06-13T04:27:29.505Z,0
2016-06-13T04:28:28.962Z,0
2016-06-13T04:29:28.324Z,0
2016-06-13T04:30:28.639Z,0
2016-06-13T04:31:28.175Z,0
2016-06-13T04:32:28.849Z,0
2016-06-13T04:33:28.336Z,0
2016-06-13T04:34:28.355Z,0
2016-06-13T04:35:28.358Z,0
2016-06-13T04:36:28.346Z,0
2016-06-13T04:37:28.364Z,0
2016-06-13T04:38:28.368Z,0
2016-06-13T04:39:29.292Z,0
2016-06-13T04:40:28.374Z,0
2016-06-13T04:41:28.908Z,0
2016-06-13T04:42:28.395Z,0
2016-06-13T04:43:29.148Z,0
2016-06-13T04:44:28.230Z,0
2016-06-13T04:45:28.389Z,0
2016-06-13T04:46:28.407Z,0
2016-06-13T04:47:28.396Z,0
2016-06-13T04:48:28.398Z,0
2016-06-13T04:49:28.401Z,0
2016-06-13T04:50:29.075Z,0
2016-06-13T04:51:28.408Z,5
2016-06-13T04:52:29.551Z,5
2016-06-13T04:53:28.414Z,5
2016-06-13T04:54:28.448Z,5
2016-06-13T04:55:28.420Z,5
2016-06-13T04:56:28.438Z,5
2016-06-13T04:57:28.411Z,5
2016-06-13T04:58:28.445Z,5
2016-06-13T04:59:28.494Z,5
2016-06-13T05:00:28.294Z,5
2016-06-13T05:01:29.532Z,5
2016-06-13T05:02:28.520Z,5
2016-06-13T05:03:29.320Z,5
2016-06-13T05:04:28.463Z,5
2016-06-13T05:05:28.512Z,5
2016-06-13T05:06:28.485Z,5
2016-06-13T05:07:28.488Z,5
2016-06-13T05:08:28.506Z,5
2016-06-13T05:09:28.494Z,5
2016-06-13T05:10:28.497Z,5
2016-06-13T05:11:28.500Z,5
2016-06-13T05:12:28.643Z,5
2016-06-13T05:13:28.537Z,10
2016-06-13T05:14:29.572Z,10
2016-06-13T05:15:28.357Z,10
2016-06-13T05:16:28.530Z,10
2016-06-13T05:17:28.550Z,10
2016-06-13T05:18:28.537Z,10
2016-06-13T05:19:28.540Z,10
2016-06-13T05:20:28.543Z,10
2016-06-13T05:21:28.546Z,10
2016-06-13T05:22:28.565Z,10
2016-06-13T05:23:28.756Z,10
2016-06-13T05:24:28.571Z,10
2016-06-13T05:25:29.683Z,15
2016-06-13T05:26:28.578Z,15
2016-06-13T05:27:28.925Z,15
2016-06-13T05:28:28.599Z,15
2016-06-13T05:29:28.586Z,15
2016-06-13T05:30:28.590Z,20
2016-06-13T05:31:28.437Z,20
2016-06-13T05:32:28.612Z,20
2016-06-13T05:33:28.615Z,20
2016-06-13T05:34:29.477Z,15
2016-06-13T05:35:28.621Z,15
2016-06-13T05:36:29.764Z,15
2016-06-13T05:37:28.627Z,15
2016-06-13T05:38:29.536Z,15
2016-06-13T05:39:28.633Z,15
2016-06-13T05:40:28.651Z,15
2016-06-13T05:41:28.654Z,20
2016-06-13T05:42:28.752Z,20
2016-06-13T05:43:28.661Z,20
2016-06-13T05:44:28.664Z,20
2016-06-13T05:45:29.792Z,20
2016-06-13T05:46:28.670Z,20
2016-06-13T05:47:30.205Z,25
2016-06-13T05:48:28.676Z,30
2016-06-13T05:49:28.679Z,35
2016-06-13T05:50:28.682Z,40
2016-06-13T05:51:28.685Z,40
2016-06-13T05:52:28.704Z,60
2016-06-13T05:53:28.707Z,65
2016-06-13T05:54:28.711Z,45
2016-06-13T05:55:28.714Z,30
2016-06-13T05:56:29.825Z,30
2016-06-13T05:57:28.611Z,20
2016-06-13T05:58:29.473Z,15
2016-06-13T05:59:28.757Z,10
2016-06-13T06:00:28.745Z,10
2016-06-13T06:01:28.793Z,5
2016-06-13T06:02:28.844Z,5
2016-06-13T06:03:28.800Z,5
2016-06-13T06:04:28.788Z,5
2016-06-13T06:05:28.603Z,10
2016-06-13T06:06:28.764Z,10
2016-06-13T06:07:29.375Z,5
2016-06-13T06:08:28.612Z,5
2016-06-13T06:09:29.959Z,10
2016-06-13T06:10:29.729Z,10
2016-06-13T06:11:28.794Z,10
2016-06-13T06:12:29.218Z,10
2016-06-13T06:13:28.660Z,10
2016-06-13T06:14:28.819Z,10
2016-06-13T06:15:28.806Z,10
2016-06-13T06:16:28.809Z,10
2016-06-13T06:17:28.812Z,10
2016-06-13T06:18:29.643Z,10
2016-06-13T06:19:28.865Z,10
2016-06-13T06:20:29.446Z,10
2016-06-13T06:21:28.840Z,10
2016-06-13T06:22:28.843Z,10
2016-06-13T06:23:28.862Z,10
2016-06-13T06:24:28.865Z,10
2016-06-13T06:25:28.867Z,10
2016-06-13T06:26:28.856Z,15
2016-06-13T06:27:29.640Z,15
2016-06-13T06:28:28.721Z,15
2016-06-13T06:29:30.255Z,15
2016-06-13T06:30:28.883Z,15
2016-06-13T06:31:28.746Z,20
2016-06-13T06:32:28.889Z,20
2016-06-13T06:33:28.892Z,20
2016-06-13T06:34:28.896Z,20
2016-06-13T06:35:28.931Z,20
2016-06-13T06:36:28.918Z,20
2016-06-13T06:37:28.920Z,20
2016-06-13T06:38:28.923Z,20
2016-06-13T06:39:28.927Z,20
2016-06-13T06:40:30.618Z,15
2016-06-13T06:41:28.933Z,15
2016-06-13T06:42:30.342Z,15
2016-06-13T06:43:28.955Z,10
2016-06-13T06:44:28.973Z,10
2016-06-13T06:45:28.961Z,10
2016-06-13T06:46:28.964Z,10
2016-06-13T06:47:28.968Z,10
2016-06-13T06:48:28.970Z,10
2016-06-13T06:49:28.974Z,10
2016-06-13T06:50:28.976Z,10
2016-06-13T06:51:29.667Z,10
2016-06-13T06:52:28.983Z,10
2016-06-13T06:53:29.345Z,15
2016-06-13T06:54:29.004Z,15
2016-06-13T06:55:28.991Z,15
2016-06-13T06:56:28.995Z,15
2016-06-13T06:57:29.763Z,15
2016-06-13T06:58:29.016Z,20
2016-06-13T06:59:29.019Z,20
2016-06-13T07:00:29.069Z,20
2016-06-13T07:01:29.073Z,20
2016-06-13T07:02:30.106Z,20
2016-06-13T07:03:29.078Z,20
2016-06-13T07:04:29.848Z,25
2016-06-13T07:05:29.038Z,25
2016-06-13T07:06:29.057Z,25
2016-06-13T07:07:28.904Z,25
2016-06-13T07:08:29.047Z,30
2016-06-13T07:09:29.066Z,35
2016-06-13T07:10:28.913Z,40
2016-06-13T07:11:29.416Z,40
2016-06-13T07:12:29.450Z,40
2016-06-13T07:13:29.734Z,40
2016-06-13T07:14:29.082Z,45
2016-06-13T07:15:29.896Z,40
2016-06-13T07:16:29.104Z,30
2016-06-13T07:17:29.107Z,30
2016-06-13T07:18:29.094Z,25
2016-06-13T07:19:29.097Z,25
2016-06-13T07:20:29.115Z,30
2016-06-13T07:21:29.134Z,25
2016-06-13T07:22:29.872Z,20
2016-06-13T07:23:29.125Z,20
2016-06-13T07:24:30.346Z,20
2016-06-13T07:25:29.147Z,20
2016-06-13T07:26:29.962Z,15
2016-06-13T07:27:29.808Z,15
2016-06-13T07:28:29.531Z,15
2016-06-13T07:29:29.003Z,15
2016-06-13T07:30:29.208Z,15
2016-06-13T07:31:29.008Z,15
2016-06-13T07:32:29.011Z,15
2016-06-13T07:33:30.281Z,15
2016-06-13T07:34:29.173Z,15
2016-06-13T07:35:29.380Z,15
2016-06-13T07:36:29.180Z,15
2016-06-13T07:37:29.668Z,15
2016-06-13T07:38:29.186Z,20
2016-06-13T07:39:29.205Z,20
2016-06-13T07:40:29.192Z,20
2016-06-13T07:41:29.196Z,25
2016-06-13T07:42:29.526Z,25
2016-06-13T07:43:29.233Z,25
2016-06-13T07:44:30.049Z,25
2016-06-13T07:45:29.207Z,30
2016-06-13T07:46:29.726Z,30
2016-06-13T07:47:29.230Z,25
2016-06-13T07:48:30.061Z,25
2016-06-13T07:49:29.080Z,20
2016-06-13T07:50:29.239Z,20
2016-06-13T07:51:29.257Z,20
2016-06-13T07:52:29.245Z,20
2016-06-13T07:53:29.249Z,20
2016-06-13T07:54:29.251Z,15
2016-06-13T07:55:29.269Z,15
2016-06-13T07:56:29.258Z,15
2016-06-13T07:57:32.042Z,15
2016-06-13T07:58:29.294Z,15
2016-06-13T07:59:29.517Z,15
2016-06-13T08:00:29.270Z,10
2016-06-13T08:01:29.351Z,15
2016-06-13T08:02:29.291Z,10
2016-06-13T08:03:29.388Z,10
2016-06-13T08:04:29.344Z,10
2016-06-13T08:05:29.300Z,10
2016-06-13T08:06:29.303Z,15
2016-06-13T08:07:29.150Z,15
2016-06-13T08:08:30.278Z,20
2016-06-13T08:09:29.313Z,20
2016-06-13T08:10:29.925Z,25
2016-06-13T08:11:29.334Z,25
2016-06-13T08:12:29.854Z,25
2016-06-13T08:13:29.200Z,30
2016-06-13T08:14:29.327Z,35
2016-06-13T08:15:29.363Z,35
2016-06-13T08:16:29.349Z,40
2016-06-13T08:17:29.853Z,45
2016-06-13T08:18:29.356Z,50
2016-06-13T08:19:29.984Z,60
2016-06-13T08:20:29.362Z,65
2016-06-13T08:21:30.491Z,85
2016-06-13T08:22:29.368Z,100
2016-06-13T08:23:29.372Z,120
2016-06-13T08:24:29.390Z,135
2016-06-13T08:25:29.377Z,140
2016-06-13T08:26:29.240Z,125
2016-06-13T08:27:29.822Z,105
2016-06-13T08:28:30.870Z,110
2016-06-13T08:29:29.406Z,110
2016-06-13T08:30:30.534Z,90
2016-06-13T08:31:29.427Z,95
2016-06-13T08:32:30.368Z,85
2016-06-13T08:33:29.433Z,80
2016-06-13T08:34:29.436Z,85
2016-06-13T08:35:29.471Z,95
2016-06-13T08:36:29.443Z,80
2016-06-13T08:37:29.462Z,75
2016-06-13T08:38:29.309Z,70
2016-06-13T08:39:29.904Z,65
2016-06-13T08:40:29.315Z,55
2016-06-13T08:41:31.224Z,45
2016-06-13T08:42:30.538Z,40
2016-06-13T08:43:29.699Z,35
2016-06-13T08:44:29.483Z,30
2016-06-13T08:45:29.517Z,25
2016-06-13T08:46:29.505Z,25
2016-06-13T08:47:29.492Z,30
2016-06-13T08:48:29.511Z,30
2016-06-13T08:49:29.515Z,40
2016-06-13T08:50:30.470Z,45
2016-06-13T08:51:29.551Z,50
2016-06-13T08:52:30.461Z,50
2016-06-13T08:53:29.542Z,55
2016-06-13T08:54:29.544Z,60
2016-06-13T08:55:29.548Z,60
2016-06-13T08:56:29.536Z,65
2016-06-13T08:57:29.585Z,65
2016-06-13T08:58:30.620Z,65
2016-06-13T08:59:29.560Z,70
2016-06-13T09:00:29.563Z,75
2016-06-13T09:01:29.739Z,80
2016-06-13T09:02:29.632Z,85
2016-06-13T09:03:30.775Z,95
2016-06-13T09:04:29.591Z,100
2016-06-13T09:05:29.845Z,115
2016-06-13T09:06:29.644Z,125
2016-06-13T09:07:29.601Z,130
2016-06-13T09:08:29.619Z,135
2016-06-13T09:09:29.607Z,140
2016-06-13T09:10:29.610Z,140
2016-06-13T09:11:29.659Z,135
2016-06-13T09:12:30.163Z,130
2016-06-13T09:13:29.509Z,120
2016-06-13T09:14:30.653Z,120
2016-06-13T09:15:29.656Z,135
2016-06-13T09:16:30.316Z,140
2016-06-13T09:17:29.662Z,130
2016-06-13T09:18:29.665Z,130
2016-06-13T09:19:29.513Z,125
2016-06-13T09:20:29.672Z,120
2016-06-13T09:21:29.690Z,115
2016-06-13T09:22:29.678Z,90
2016-06-13T09:23:30.697Z,80
2016-06-13T09:24:29.714Z,75
2016-06-13T09:25:29.718Z,80
2016-06-13T09:26:29.706Z,85
2016-06-13T09:27:30.834Z,85
2016-06-13T09:28:29.587Z,100
2016-06-13T09:29:29.716Z,110
2016-06-13T09:30:29.718Z,120
2016-06-13T09:31:29.736Z,135
2016-06-13T09:32:29.740Z,165
2016-06-13T09:33:29.743Z,160
2016-06-13T09:34:30.668Z,150
2016-06-13T09:35:29.749Z,140
2016-06-13T09:36:30.361Z,135
2016-06-13T09:37:29.771Z,120
2016-06-13T09:38:30.633Z,105
2016-06-13T09:39:29.777Z,95
2016-06-13T09:40:29.780Z,80
2016-06-13T09:41:29.799Z,75
2016-06-13T09:42:29.802Z,65
2016-06-13T09:43:30.727Z,55
2016-06-13T09:44:29.824Z,45
2016-06-13T09:45:31.029Z,35
2016-06-13T09:46:29.657Z,30
2016-06-13T09:47:30.568Z,25
2016-06-13T09:48:29.836Z,20
2016-06-13T09:49:30.807Z,15
2016-06-13T09:50:29.530Z,15
2016-06-13T09:51:29.830Z,15
2016-06-13T09:52:29.864Z,20
2016-06-13T09:53:29.867Z,20
2016-06-13T09:54:29.870Z,20
2016-06-13T09:55:29.858Z,20
2016-06-13T09:56:30.657Z,25
2016-06-13T09:57:29.879Z,25
2016-06-13T09:58:30.508Z,30
2016-06-13T09:59:29.900Z,30
2016-06-13T10:00:29.888Z,30
2016-06-13T10:01:29.906Z,25
2016-06-13T10:02:29.754Z,25
2016-06-13T10:03:30.023Z,25
2016-06-13T10:04:29.947Z,25
2016-06-13T10:05:29.935Z,25
2016-06-13T10:06:29.954Z,25
2016-06-13T10:07:30.972Z,25
2016-06-13T10:08:29.960Z,30
2016-06-13T10:09:30.761Z,30
2016-06-13T10:10:29.966Z,30
2016-06-13T10:11:30.062Z,35
2016-06-13T10:12:30.035Z,35
2016-06-13T10:13:29.976Z,40
2016-06-13T10:14:29.837Z,45
2016-06-13T10:15:29.981Z,50
2016-06-13T10:16:29.985Z,50
2016-06-13T10:17:30.003Z,55
2016-06-13T10:18:30.459Z,60
2016-06-13T10:19:30.040Z,60
2016-06-13T10:20:30.684Z,60
2016-06-13T10:21:30.015Z,60
2016-06-13T10:22:30.628Z,60
2016-06-13T10:23:30.037Z,65
2016-06-13T10:24:30.057Z,70
2016-06-13T10:25:30.027Z,70
2016-06-13T10:26:30.999Z,70
2016-06-13T10:27:30.049Z,65
2016-06-13T10:28:29.912Z,65
2016-06-13T10:29:31.040Z,65
2016-06-13T10:30:30.058Z,65
2016-06-13T10:31:31.124Z,65
2016-06-13T10:32:30.081Z,60
2016-06-13T10:33:30.755Z,60
2016-06-13T10:34:30.102Z,60
2016-06-13T10:35:30.091Z,55
2016-06-13T10:36:29.952Z,55
2016-06-13T10:37:30.111Z,60
2016-06-13T10:38:30.114Z,55
2016-06-13T10:39:30.117Z,55
2016-06-13T10:40:30.183Z,55
2016-06-13T10:41:30.124Z,55
2016-06-13T10:42:30.737Z,55
2016-06-13T10:43:30.411Z,55
2016-06-13T10:44:31.210Z,55
2016-06-13T10:45:30.152Z,50
2016-06-13T10:46:30.139Z,50
2016-06-13T10:47:30.158Z,55
2016-06-13T10:48:30.161Z,50
2016-06-13T10:49:30.164Z,50
2016-06-13T10:50:30.167Z,55
2016-06-13T10:51:30.170Z,55
2016-06-13T10:52:30.173Z,55
2016-06-13T10:53:31.035Z,55
2016-06-13T10:54:30.179Z,55
2016-06-13T10:55:30.652Z,50
2016-06-13T10:56:30.186Z,45
2016-06-13T10:57:30.189Z,40
2016-06-13T10:58:30.411Z,35
2016-06-13T10:59:30.054Z,35
2016-06-13T11:00:30.213Z,40
2016-06-13T11:01:30.216Z,35
2016-06-13T11:02:30.219Z,35
2016-06-13T11:03:30.285Z,40
2016-06-13T11:04:30.788Z,45
2016-06-13T11:05:30.088Z,50
2016-06-13T11:06:31.248Z,55
2016-06-13T11:07:30.235Z,60
2016-06-13T11:08:30.301Z,60
2016-06-13T11:09:30.257Z,65
2016-06-13T11:10:30.276Z,65
2016-06-13T11:11:30.279Z,65
2016-06-13T11:12:30.344Z,65
2016-06-13T11:13:30.332Z,65
2016-06-13T11:14:29.975Z,65
2016-06-13T11:15:30.853Z,65
2016-06-13T11:16:30.294Z,65
2016-06-13T11:17:31.219Z,65
2016-06-13T11:18:30.159Z,70
2016-06-13T11:19:30.318Z,80
2016-06-13T11:20:30.182Z,85
2016-06-13T11:21:30.325Z,90
2016-06-13T11:22:30.328Z,95
2016-06-13T11:23:30.330Z,100
2016-06-13T11:24:30.334Z,95
2016-06-13T11:25:30.353Z,95
2016-06-13T11:26:31.247Z,95
2016-06-13T11:27:30.203Z,95
2016-06-13T11:28:33.674Z,95
2016-06-13T11:29:30.365Z,90
2016-06-13T11:30:37.712Z,90
2016-06-13T11:31:30.371Z,95
2016-06-13T11:32:30.390Z,95
2016-06-13T11:33:30.221Z,115
2016-06-13T11:34:30.381Z,105
2016-06-13T11:35:30.243Z,115
2016-06-13T11:36:30.403Z,115
2016-06-13T11:37:30.906Z,115
2016-06-13T11:38:30.409Z,130
2016-06-13T11:39:31.365Z,125
2016-06-13T11:40:30.415Z,135
2016-06-13T11:41:30.683Z,130
2016-06-13T11:42:30.436Z,130
2016-06-13T11:43:31.377Z,125
2016-06-13T11:44:30.443Z,120
2016-06-13T11:45:30.290Z,120
2016-06-13T11:46:30.308Z,110
2016-06-13T11:47:30.467Z,105
2016-06-13T11:48:30.829Z,105
2016-06-13T11:49:30.488Z,95
2016-06-13T11:50:31.538Z,90
2016-06-13T11:51:30.480Z,80
2016-06-13T11:52:31.436Z,75
2016-06-13T11:53:30.501Z,80
2016-06-13T11:54:30.504Z,85
2016-06-13T11:55:30.523Z,90
2016-06-13T11:56:30.354Z,90
2016-06-13T11:57:30.514Z,90
2016-06-13T11:58:30.376Z,90
2016-06-13T11:59:31.051Z,90
2016-06-13T12:00:30.538Z,90
2016-06-13T12:01:31.792Z,85
2016-06-13T12:02:30.545Z,90
2016-06-13T12:03:32.235Z,90
2016-06-13T12:04:30.395Z,95
2016-06-13T12:05:31.662Z,95
2016-06-13T12:06:30.572Z,95
2016-06-13T12:07:30.419Z,90
2016-06-13T12:08:30.579Z,85
2016-06-13T12:09:30.488Z,85
2016-06-13T12:10:30.600Z,85
2016-06-13T12:11:30.619Z,90
2016-06-13T12:12:31.356Z,85
2016-06-13T12:13:31.656Z,75
2016-06-13T12:14:32.800Z,75
2016-06-13T12:15:30.757Z,85
2016-06-13T12:16:31.243Z,80
2016-06-13T12:17:30.621Z,85
2016-06-13T12:18:30.688Z,90
2016-06-13T12:19:30.660Z,80
2016-06-13T12:20:30.678Z,90
2016-06-13T12:21:30.853Z,100
2016-06-13T12:22:30.497Z,85
2016-06-13T12:23:30.656Z,85
2016-06-13T12:24:30.659Z,95
2016-06-13T12:25:31.194Z,95
2016-06-13T12:26:30.681Z,95
2016-06-13T12:27:31.699Z,85
2016-06-13T12:28:31.250Z,100
2016-06-13T12:29:31.378Z,100
2016-06-13T12:30:30.537Z,90
2016-06-13T12:31:30.696Z,80
2016-06-13T12:32:30.700Z,80
2016-06-13T12:33:30.749Z,80
2016-06-13T12:34:30.793Z,95
2016-06-13T12:35:30.853Z,85
2016-06-13T12:36:31.771Z,75
2016-06-13T12:37:30.924Z,70
2016-06-13T12:38:31.478Z,70
2016-06-13T12:39:30.965Z,70
2016-06-13T12:40:30.999Z,70
2016-06-13T12:41:31.017Z,70
2016-06-13T12:42:31.035Z,80
2016-06-13T12:43:31.685Z,85
2016-06-13T12:44:30.787Z,70
2016-06-13T12:45:30.905Z,65
2016-06-13T12:46:30.928Z,65
2016-06-13T12:47:33.280Z,70
2016-06-13T12:48:31.114Z,85
2016-06-13T12:49:31.900Z,80
2016-06-13T12:50:31.108Z,90
2016-06-13T12:51:31.129Z,90
2016-06-13T12:52:30.822Z,80
2016-06-13T12:53:31.138Z,80
2016-06-13T12:54:31.142Z,80
2016-06-13T12:55:31.146Z,85
2016-06-13T12:56:31.149Z,80
2016-06-13T12:57:31.169Z,75
2016-06-13T12:58:32.985Z,75
2016-06-13T12:59:31.176Z,70
2016-06-13T13:00:32.070Z,70
2016-06-13T13:01:31.198Z,65
2016-06-13T13:02:31.202Z,60
2016-06-13T13:03:31.251Z,55
2016-06-13T13:04:31.193Z,55
2016-06-13T13:05:31.055Z,50
2016-06-13T13:06:31.230Z,50
2016-06-13T13:07:31.217Z,55
2016-06-13T13:08:31.221Z,60
2016-06-13T13:09:32.880Z,60
2016-06-13T13:10:31.243Z,65
2016-06-13T13:11:32.354Z,65
2016-06-13T13:12:32.671Z,75
2016-06-13T13:13:31.251Z,75
2016-06-13T13:14:31.271Z,80
2016-06-13T13:15:31.320Z,85
2016-06-13T13:16:31.120Z,90
2016-06-13T13:17:31.326Z,95
2016-06-13T13:18:31.298Z,95
2016-06-13T13:19:31.286Z,95
2016-06-13T13:20:31.507Z,90
2016-06-13T13:21:31.307Z,90
2016-06-13T13:22:32.138Z,90
2016-06-13T13:23:31.329Z,90
2016-06-13T13:24:31.332Z,90
2016-06-13T13:25:31.320Z,95
2016-06-13T13:26:31.183Z,95
2016-06-13T13:27:31.341Z,95
2016-06-13T13:28:31.360Z,90
2016-06-13T13:29:32.051Z,90
2016-06-13T13:30:31.366Z,85
2016-06-13T13:31:32.026Z,85
2016-06-13T13:32:31.372Z,90
2016-06-13T13:33:32.485Z,85
2016-06-13T13:34:31.378Z,80
2016-06-13T13:35:31.695Z,80
2016-06-13T13:36:31.384Z,75
2016-06-13T13:37:31.434Z,70
2016-06-13T13:38:31.423Z,70
2016-06-13T13:39:31.426Z,70
2016-06-13T13:40:31.429Z,75
2016-06-13T13:41:31.416Z,75
2016-06-13T13:42:31.341Z,75
2016-06-13T13:43:31.453Z,75
2016-06-13T13:44:32.659Z,75
2016-06-13T13:45:31.662Z,75
2016-06-13T13:46:32.384Z,70
2016-06-13T13:47:31.465Z,70
2016-06-13T13:48:31.781Z,70
2016-06-13T13:49:31.471Z,70
2016-06-13T13:50:31.490Z,65
2016-06-13T13:51:31.338Z,65
2016-06-13T13:52:31.497Z,70
2016-06-13T13:53:31.500Z,70
2016-06-13T13:54:31.519Z,70
2016-06-13T13:55:32.255Z,65
2016-06-13T13:56:31.508Z,70
2016-06-13T13:57:32.746Z,65
2016-06-13T13:58:31.531Z,65
2016-06-13T13:59:32.299Z,65
2016-06-13T14:00:31.380Z,65
2016-06-13T14:01:31.399Z,65
2016-06-13T14:02:31.543Z,70
2016-06-13T14:03:31.547Z,70
2016-06-13T14:04:31.628Z,70
2016-06-13T14:05:31.567Z,70
2016-06-13T14:06:32.320Z,65
2016-06-13T14:07:31.574Z,70
2016-06-13T14:08:32.046Z,70
2016-06-13T14:09:31.611Z,65
2016-06-13T14:10:32.146Z,65
2016-06-13T14:11:31.617Z,70
2016-06-13T14:12:31.527Z,65
2016-06-13T14:13:31.623Z,65
2016-06-13T14:14:32.298Z,60
2016-06-13T14:15:31.629Z,65
2016-06-13T14:16:31.648Z,65
2016-06-13T14:17:32.776Z,65
2016-06-13T14:18:31.499Z,70
2016-06-13T14:19:32.299Z,60
2016-06-13T14:20:31.660Z,60
2016-06-13T14:21:32.319Z,60
2016-06-13T14:22:31.682Z,60
2016-06-13T14:23:31.670Z,60
2016-06-13T14:24:31.704Z,60